<?xml version="1.0" encoding="UTF-8" standalone="no" ?>
<gpx xmlns="http://www.topografix.com/GPX/1/1" xmlns:xsi="http://www.w3.org/2001/XMLSchema-instance" xsi:schemaLocation="http://www.topografix.com/GPX/1/1 http://www.topografix.com/GPX/1/1/gpx.xsd" version="1.1" creator="VisuGPX - https://www.visugpx.com">
  <metadata>
    <name>circuits Cotentin</name>
  </metadata>
  <trk>
    <name><![CDATA[14917490-Vauville 18]]></name>
    <extensions>
      <line xmlns="http://www.topografix.com/GPX/gpx_style/0/2">
        <color>00FFFF</color>
        <width>4</width>
      </line>
    </extensions>
    <trkseg>
      <trkpt lat="49.63499" lon="-1.8503">
        <ele>6</ele>
        <time>2022-06-17T15:37:36Z</time>
      </trkpt>
      <trkpt lat="49.63501" lon="-1.85049">
        <ele>6</ele>
        <time>2022-06-17T15:37:53Z</time>
      </trkpt>
      <trkpt lat="49.63516" lon="-1.8505">
        <ele>6</ele>
        <time>2022-06-17T15:38:13Z</time>
      </trkpt>
      <trkpt lat="49.6353" lon="-1.85065">
        <ele>6</ele>
        <time>2022-06-17T15:38:35Z</time>
      </trkpt>
      <trkpt lat="49.63581" lon="-1.85087">
        <ele>7</ele>
        <time>2022-06-17T15:39:46Z</time>
      </trkpt>
      <trkpt lat="49.63598" lon="-1.85125">
        <ele>5</ele>
        <time>2022-06-17T15:40:26Z</time>
      </trkpt>
      <trkpt lat="49.63628" lon="-1.85155">
        <ele>4</ele>
        <time>2022-06-17T15:41:14Z</time>
      </trkpt>
      <trkpt lat="49.63655" lon="-1.85164">
        <ele>5</ele>
        <time>2022-06-17T15:41:51Z</time>
      </trkpt>
      <trkpt lat="49.6368" lon="-1.85162">
        <ele>5</ele>
        <time>2022-06-17T15:42:24Z</time>
      </trkpt>
      <trkpt lat="49.63708" lon="-1.85153">
        <ele>5</ele>
        <time>2022-06-17T15:43:02Z</time>
      </trkpt>
      <trkpt lat="49.63719" lon="-1.8516">
        <ele>5</ele>
        <time>2022-06-17T15:43:18Z</time>
      </trkpt>
      <trkpt lat="49.63749" lon="-1.85202">
        <ele>4</ele>
        <time>2022-06-17T15:44:12Z</time>
      </trkpt>
      <trkpt lat="49.63823" lon="-1.85246">
        <ele>6</ele>
        <time>2022-06-17T15:45:58Z</time>
      </trkpt>
      <trkpt lat="49.63834" lon="-1.85256">
        <ele>6</ele>
        <time>2022-06-17T15:46:15Z</time>
      </trkpt>
      <trkpt lat="49.63854" lon="-1.85265">
        <ele>6</ele>
        <time>2022-06-17T15:46:43Z</time>
      </trkpt>
      <trkpt lat="49.63912" lon="-1.85297">
        <ele>6</ele>
        <time>2022-06-17T15:48:05Z</time>
      </trkpt>
      <trkpt lat="49.63929" lon="-1.85305">
        <ele>6</ele>
        <time>2022-06-17T15:48:29Z</time>
      </trkpt>
      <trkpt lat="49.63935" lon="-1.85307">
        <ele>6</ele>
        <time>2022-06-17T15:48:37Z</time>
      </trkpt>
      <trkpt lat="49.64" lon="-1.85342">
        <ele>6</ele>
        <time>2022-06-17T15:50:09Z</time>
      </trkpt>
      <trkpt lat="49.64016" lon="-1.85344">
        <ele>6</ele>
        <time>2022-06-17T15:50:30Z</time>
      </trkpt>
      <trkpt lat="49.6415" lon="-1.85423">
        <ele>6</ele>
        <time>2022-06-17T15:53:41Z</time>
      </trkpt>
      <trkpt lat="49.6417" lon="-1.85428">
        <ele>6</ele>
        <time>2022-06-17T15:54:09Z</time>
      </trkpt>
      <trkpt lat="49.64248" lon="-1.85469">
        <ele>7</ele>
        <time>2022-06-17T15:55:58Z</time>
      </trkpt>
      <trkpt lat="49.64249" lon="-1.85474">
        <ele>7</ele>
        <time>2022-06-17T15:56:03Z</time>
      </trkpt>
      <trkpt lat="49.64253" lon="-1.85474">
        <ele>7</ele>
        <time>2022-06-17T15:56:08Z</time>
      </trkpt>
      <trkpt lat="49.64264" lon="-1.8548">
        <ele>7</ele>
        <time>2022-06-17T15:56:24Z</time>
      </trkpt>
      <trkpt lat="49.64291" lon="-1.85423">
        <ele>12</ele>
        <time>2022-06-17T15:57:25Z</time>
      </trkpt>
      <trkpt lat="49.64305" lon="-1.85372">
        <ele>14</ele>
        <time>2022-06-17T15:58:13Z</time>
      </trkpt>
      <trkpt lat="49.64398" lon="-1.8527">
        <ele>21</ele>
        <time>2022-06-17T16:00:45Z</time>
      </trkpt>
      <trkpt lat="49.64413" lon="-1.85298">
        <ele>21</ele>
        <time>2022-06-17T16:01:16Z</time>
      </trkpt>
      <trkpt lat="49.64449" lon="-1.85375">
        <ele>24</ele>
        <time>2022-06-17T16:02:38Z</time>
      </trkpt>
      <trkpt lat="49.64471" lon="-1.8545">
        <ele>24</ele>
        <time>2022-06-17T16:03:50Z</time>
      </trkpt>
      <trkpt lat="49.64503" lon="-1.85519">
        <ele>23</ele>
        <time>2022-06-17T16:05:03Z</time>
      </trkpt>
      <trkpt lat="49.64575" lon="-1.85615">
        <ele>23</ele>
        <time>2022-06-17T16:07:10Z</time>
      </trkpt>
      <trkpt lat="49.64639" lon="-1.85685">
        <ele>26</ele>
        <time>2022-06-17T16:08:55Z</time>
      </trkpt>
      <trkpt lat="49.64661" lon="-1.85698">
        <ele>28</ele>
        <time>2022-06-17T16:09:26Z</time>
      </trkpt>
      <trkpt lat="49.64706" lon="-1.85728">
        <ele>29</ele>
        <time>2022-06-17T16:10:31Z</time>
      </trkpt>
      <trkpt lat="49.64753" lon="-1.85769">
        <ele>25</ele>
        <time>2022-06-17T16:11:43Z</time>
      </trkpt>
      <trkpt lat="49.64758" lon="-1.85768">
        <ele>27</ele>
        <time>2022-06-17T16:11:50Z</time>
      </trkpt>
      <trkpt lat="49.64776" lon="-1.85784">
        <ele>27</ele>
        <time>2022-06-17T16:12:18Z</time>
      </trkpt>
      <trkpt lat="49.64783" lon="-1.85784">
        <ele>28</ele>
        <time>2022-06-17T16:12:27Z</time>
      </trkpt>
      <trkpt lat="49.64799" lon="-1.85793">
        <ele>29</ele>
        <time>2022-06-17T16:12:50Z</time>
      </trkpt>
      <trkpt lat="49.64805" lon="-1.85794">
        <ele>31</ele>
        <time>2022-06-17T16:12:58Z</time>
      </trkpt>
      <trkpt lat="49.64837" lon="-1.85807">
        <ele>34</ele>
        <time>2022-06-17T16:13:42Z</time>
      </trkpt>
      <trkpt lat="49.64876" lon="-1.85815">
        <ele>43</ele>
        <time>2022-06-17T16:14:35Z</time>
      </trkpt>
      <trkpt lat="49.64912" lon="-1.8582">
        <ele>52</ele>
        <time>2022-06-17T16:15:23Z</time>
      </trkpt>
      <trkpt lat="49.64981" lon="-1.85894">
        <ele>53</ele>
        <time>2022-06-17T16:17:15Z</time>
      </trkpt>
      <trkpt lat="49.65013" lon="-1.85924">
        <ele>55</ele>
        <time>2022-06-17T16:18:05Z</time>
      </trkpt>
      <trkpt lat="49.6504" lon="-1.85953">
        <ele>54</ele>
        <time>2022-06-17T16:18:49Z</time>
      </trkpt>
      <trkpt lat="49.65083" lon="-1.86081">
        <ele>32</ele>
        <time>2022-06-17T16:20:53Z</time>
      </trkpt>
      <trkpt lat="49.65122" lon="-1.86147">
        <ele>31</ele>
        <time>2022-06-17T16:22:11Z</time>
      </trkpt>
      <trkpt lat="49.65142" lon="-1.86191">
        <ele>31</ele>
        <time>2022-06-17T16:22:57Z</time>
      </trkpt>
      <trkpt lat="49.6517" lon="-1.86284">
        <ele>27</ele>
        <time>2022-06-17T16:24:26Z</time>
      </trkpt>
      <trkpt lat="49.652" lon="-1.86349">
        <ele>23</ele>
        <time>2022-06-17T16:25:35Z</time>
      </trkpt>
      <trkpt lat="49.65229" lon="-1.86407">
        <ele>23</ele>
        <time>2022-06-17T16:26:38Z</time>
      </trkpt>
      <trkpt lat="49.65259" lon="-1.86444">
        <ele>25</ele>
        <time>2022-06-17T16:27:29Z</time>
      </trkpt>
      <trkpt lat="49.65264" lon="-1.86454">
        <ele>25</ele>
        <time>2022-06-17T16:27:40Z</time>
      </trkpt>
      <trkpt lat="49.65271" lon="-1.86485">
        <ele>23</ele>
        <time>2022-06-17T16:28:08Z</time>
      </trkpt>
      <trkpt lat="49.65298" lon="-1.86514">
        <ele>24</ele>
        <time>2022-06-17T16:28:52Z</time>
      </trkpt>
      <trkpt lat="49.65336" lon="-1.86564">
        <ele>22</ele>
        <time>2022-06-17T16:29:59Z</time>
      </trkpt>
      <trkpt lat="49.65361" lon="-1.86593">
        <ele>22</ele>
        <time>2022-06-17T16:30:41Z</time>
      </trkpt>
      <trkpt lat="49.65396" lon="-1.86614">
        <ele>27</ele>
        <time>2022-06-17T16:31:31Z</time>
      </trkpt>
      <trkpt lat="49.6541" lon="-1.86617">
        <ele>30</ele>
        <time>2022-06-17T16:31:50Z</time>
      </trkpt>
      <trkpt lat="49.65432" lon="-1.86656">
        <ele>29</ele>
        <time>2022-06-17T16:32:34Z</time>
      </trkpt>
      <trkpt lat="49.65445" lon="-1.86672">
        <ele>30</ele>
        <time>2022-06-17T16:32:57Z</time>
      </trkpt>
      <trkpt lat="49.65461" lon="-1.86682">
        <ele>34</ele>
        <time>2022-06-17T16:33:20Z</time>
      </trkpt>
      <trkpt lat="49.65483" lon="-1.86674">
        <ele>42</ele>
        <time>2022-06-17T16:33:50Z</time>
      </trkpt>
      <trkpt lat="49.65494" lon="-1.86687">
        <ele>43</ele>
        <time>2022-06-17T16:34:08Z</time>
      </trkpt>
      <trkpt lat="49.6552" lon="-1.86769">
        <ele>37</ele>
        <time>2022-06-17T16:35:27Z</time>
      </trkpt>
      <trkpt lat="49.65576" lon="-1.86868">
        <ele>39</ele>
        <time>2022-06-17T16:37:21Z</time>
      </trkpt>
      <trkpt lat="49.65615" lon="-1.86946">
        <ele>34</ele>
        <time>2022-06-17T16:38:46Z</time>
      </trkpt>
      <trkpt lat="49.65633" lon="-1.86959">
        <ele>38</ele>
        <time>2022-06-17T16:39:12Z</time>
      </trkpt>
      <trkpt lat="49.65642" lon="-1.86977">
        <ele>38</ele>
        <time>2022-06-17T16:39:32Z</time>
      </trkpt>
      <trkpt lat="49.65638" lon="-1.87011">
        <ele>30</ele>
        <time>2022-06-17T16:40:02Z</time>
      </trkpt>
      <trkpt lat="49.6564" lon="-1.87026">
        <ele>28</ele>
        <time>2022-06-17T16:40:15Z</time>
      </trkpt>
      <trkpt lat="49.65729" lon="-1.87137">
        <ele>28</ele>
        <time>2022-06-17T16:42:48Z</time>
      </trkpt>
      <trkpt lat="49.65747" lon="-1.87178">
        <ele>25</ele>
        <time>2022-06-17T16:43:30Z</time>
      </trkpt>
      <trkpt lat="49.65762" lon="-1.87193">
        <ele>25</ele>
        <time>2022-06-17T16:43:54Z</time>
      </trkpt>
      <trkpt lat="49.65809" lon="-1.87185">
        <ele>33</ele>
        <time>2022-06-17T16:44:57Z</time>
      </trkpt>
      <trkpt lat="49.65823" lon="-1.87185">
        <ele>35</ele>
        <time>2022-06-17T16:45:16Z</time>
      </trkpt>
      <trkpt lat="49.65845" lon="-1.87203">
        <ele>38</ele>
        <time>2022-06-17T16:45:49Z</time>
      </trkpt>
      <trkpt lat="49.65847" lon="-1.87199">
        <ele>39</ele>
        <time>2022-06-17T16:45:54Z</time>
      </trkpt>
      <trkpt lat="49.65825" lon="-1.87182">
        <ele>36</ele>
        <time>2022-06-17T16:46:27Z</time>
      </trkpt>
      <trkpt lat="49.6581" lon="-1.87182">
        <ele>34</ele>
        <time>2022-06-17T16:46:47Z</time>
      </trkpt>
      <trkpt lat="49.65762" lon="-1.8719">
        <ele>25</ele>
        <time>2022-06-17T16:47:51Z</time>
      </trkpt>
      <trkpt lat="49.65749" lon="-1.87176">
        <ele>25</ele>
        <time>2022-06-17T16:48:12Z</time>
      </trkpt>
      <trkpt lat="49.6573" lon="-1.87134">
        <ele>29</ele>
        <time>2022-06-17T16:48:56Z</time>
      </trkpt>
      <trkpt lat="49.65642" lon="-1.87024">
        <ele>29</ele>
        <time>2022-06-17T16:51:27Z</time>
      </trkpt>
      <trkpt lat="49.65641" lon="-1.87011">
        <ele>31</ele>
        <time>2022-06-17T16:51:39Z</time>
      </trkpt>
      <trkpt lat="49.65644" lon="-1.86976">
        <ele>38</ele>
        <time>2022-06-17T16:52:09Z</time>
      </trkpt>
      <trkpt lat="49.65635" lon="-1.86957">
        <ele>39</ele>
        <time>2022-06-17T16:52:30Z</time>
      </trkpt>
      <trkpt lat="49.65617" lon="-1.86944">
        <ele>36</ele>
        <time>2022-06-17T16:52:56Z</time>
      </trkpt>
      <trkpt lat="49.65577" lon="-1.86866">
        <ele>40</ele>
        <time>2022-06-17T16:54:22Z</time>
      </trkpt>
      <trkpt lat="49.65522" lon="-1.86768">
        <ele>38</ele>
        <time>2022-06-17T16:56:14Z</time>
      </trkpt>
      <trkpt lat="49.65496" lon="-1.86685">
        <ele>44</ele>
        <time>2022-06-17T16:57:34Z</time>
      </trkpt>
      <trkpt lat="49.65484" lon="-1.86671">
        <ele>43</ele>
        <time>2022-06-17T16:57:54Z</time>
      </trkpt>
      <trkpt lat="49.65462" lon="-1.86678">
        <ele>35</ele>
        <time>2022-06-17T16:58:24Z</time>
      </trkpt>
      <trkpt lat="49.65447" lon="-1.8667">
        <ele>31</ele>
        <time>2022-06-17T16:58:45Z</time>
      </trkpt>
      <trkpt lat="49.65434" lon="-1.86654">
        <ele>30</ele>
        <time>2022-06-17T16:59:07Z</time>
      </trkpt>
      <trkpt lat="49.65412" lon="-1.86614">
        <ele>31</ele>
        <time>2022-06-17T16:59:53Z</time>
      </trkpt>
      <trkpt lat="49.65397" lon="-1.86611">
        <ele>28</ele>
        <time>2022-06-17T17:00:13Z</time>
      </trkpt>
      <trkpt lat="49.65362" lon="-1.8659">
        <ele>23</ele>
        <time>2022-06-17T17:01:03Z</time>
      </trkpt>
      <trkpt lat="49.65338" lon="-1.86562">
        <ele>22</ele>
        <time>2022-06-17T17:01:43Z</time>
      </trkpt>
      <trkpt lat="49.653" lon="-1.86511">
        <ele>25</ele>
        <time>2022-06-17T17:02:50Z</time>
      </trkpt>
      <trkpt lat="49.65273" lon="-1.86483">
        <ele>24</ele>
        <time>2022-06-17T17:03:34Z</time>
      </trkpt>
      <trkpt lat="49.65267" lon="-1.86453">
        <ele>26</ele>
        <time>2022-06-17T17:04:01Z</time>
      </trkpt>
      <trkpt lat="49.65261" lon="-1.86441">
        <ele>26</ele>
        <time>2022-06-17T17:04:14Z</time>
      </trkpt>
      <trkpt lat="49.65265" lon="-1.86434">
        <ele>27</ele>
        <time>2022-06-17T17:04:22Z</time>
      </trkpt>
      <trkpt lat="49.6527" lon="-1.86401">
        <ele>32</ele>
        <time>2022-06-17T17:04:51Z</time>
      </trkpt>
      <trkpt lat="49.65269" lon="-1.86367">
        <ele>35</ele>
        <time>2022-06-17T17:05:21Z</time>
      </trkpt>
      <trkpt lat="49.65258" lon="-1.86356">
        <ele>34</ele>
        <time>2022-06-17T17:05:38Z</time>
      </trkpt>
      <trkpt lat="49.65245" lon="-1.86334">
        <ele>34</ele>
        <time>2022-06-17T17:06:04Z</time>
      </trkpt>
      <trkpt lat="49.65234" lon="-1.86321">
        <ele>33</ele>
        <time>2022-06-17T17:06:22Z</time>
      </trkpt>
      <trkpt lat="49.65224" lon="-1.86272">
        <ele>37</ele>
        <time>2022-06-17T17:07:07Z</time>
      </trkpt>
      <trkpt lat="49.65202" lon="-1.86199">
        <ele>42</ele>
        <time>2022-06-17T17:08:16Z</time>
      </trkpt>
      <trkpt lat="49.65195" lon="-1.86155">
        <ele>46</ele>
        <time>2022-06-17T17:08:55Z</time>
      </trkpt>
      <trkpt lat="49.65194" lon="-1.86128">
        <ele>49</ele>
        <time>2022-06-17T17:09:19Z</time>
      </trkpt>
      <trkpt lat="49.65221" lon="-1.86035">
        <ele>61</ele>
        <time>2022-06-17T17:10:47Z</time>
      </trkpt>
      <trkpt lat="49.65251" lon="-1.8597">
        <ele>66</ele>
        <time>2022-06-17T17:11:56Z</time>
      </trkpt>
      <trkpt lat="49.65264" lon="-1.85916">
        <ele>75</ele>
        <time>2022-06-17T17:12:45Z</time>
      </trkpt>
      <trkpt lat="49.65267" lon="-1.85882">
        <ele>80</ele>
        <time>2022-06-17T17:13:15Z</time>
      </trkpt>
      <trkpt lat="49.65266" lon="-1.85844">
        <ele>85</ele>
        <time>2022-06-17T17:13:48Z</time>
      </trkpt>
      <trkpt lat="49.65233" lon="-1.85758">
        <ele>99</ele>
        <time>2022-06-17T17:15:14Z</time>
      </trkpt>
      <trkpt lat="49.65229" lon="-1.85739">
        <ele>102</ele>
        <time>2022-06-17T17:15:32Z</time>
      </trkpt>
      <trkpt lat="49.65228" lon="-1.85707">
        <ele>107</ele>
        <time>2022-06-17T17:15:59Z</time>
      </trkpt>
      <trkpt lat="49.65251" lon="-1.85597">
        <ele>119</ele>
        <time>2022-06-17T17:17:39Z</time>
      </trkpt>
      <trkpt lat="49.65256" lon="-1.85595">
        <ele>120</ele>
        <time>2022-06-17T17:17:46Z</time>
      </trkpt>
      <trkpt lat="49.65284" lon="-1.85598">
        <ele>120</ele>
        <time>2022-06-17T17:18:24Z</time>
      </trkpt>
      <trkpt lat="49.65302" lon="-1.85598">
        <ele>121</ele>
        <time>2022-06-17T17:18:48Z</time>
      </trkpt>
      <trkpt lat="49.65316" lon="-1.85595">
        <ele>121</ele>
        <time>2022-06-17T17:19:06Z</time>
      </trkpt>
      <trkpt lat="49.65325" lon="-1.8559">
        <ele>122</ele>
        <time>2022-06-17T17:19:19Z</time>
      </trkpt>
      <trkpt lat="49.65329" lon="-1.85586">
        <ele>123</ele>
        <time>2022-06-17T17:19:26Z</time>
      </trkpt>
      <trkpt lat="49.65335" lon="-1.85566">
        <ele>125</ele>
        <time>2022-06-17T17:19:45Z</time>
      </trkpt>
      <trkpt lat="49.65337" lon="-1.85522">
        <ele>129</ele>
        <time>2022-06-17T17:20:23Z</time>
      </trkpt>
      <trkpt lat="49.65337" lon="-1.85466">
        <ele>133</ele>
        <time>2022-06-17T17:21:11Z</time>
      </trkpt>
      <trkpt lat="49.65331" lon="-1.85426">
        <ele>135</ele>
        <time>2022-06-17T17:21:47Z</time>
      </trkpt>
      <trkpt lat="49.65333" lon="-1.85403">
        <ele>136</ele>
        <time>2022-06-17T17:22:07Z</time>
      </trkpt>
      <trkpt lat="49.65325" lon="-1.8539">
        <ele>137</ele>
        <time>2022-06-17T17:22:22Z</time>
      </trkpt>
      <trkpt lat="49.65245" lon="-1.85413">
        <ele>133</ele>
        <time>2022-06-17T17:24:11Z</time>
      </trkpt>
      <trkpt lat="49.65188" lon="-1.85409">
        <ele>132</ele>
        <time>2022-06-17T17:25:27Z</time>
      </trkpt>
      <trkpt lat="49.65144" lon="-1.85433">
        <ele>131</ele>
        <time>2022-06-17T17:26:29Z</time>
      </trkpt>
      <trkpt lat="49.65087" lon="-1.85425">
        <ele>128</ele>
        <time>2022-06-17T17:27:45Z</time>
      </trkpt>
      <trkpt lat="49.65084" lon="-1.85429">
        <ele>128</ele>
        <time>2022-06-17T17:27:51Z</time>
      </trkpt>
      <trkpt lat="49.65061" lon="-1.85438">
        <ele>128</ele>
        <time>2022-06-17T17:28:22Z</time>
      </trkpt>
      <trkpt lat="49.65014" lon="-1.85439">
        <ele>126</ele>
        <time>2022-06-17T17:29:25Z</time>
      </trkpt>
      <trkpt lat="49.64979" lon="-1.85409">
        <ele>124</ele>
        <time>2022-06-17T17:30:19Z</time>
      </trkpt>
      <trkpt lat="49.64966" lon="-1.85387">
        <ele>123</ele>
        <time>2022-06-17T17:30:44Z</time>
      </trkpt>
      <trkpt lat="49.64963" lon="-1.8536">
        <ele>123</ele>
        <time>2022-06-17T17:31:08Z</time>
      </trkpt>
      <trkpt lat="49.64966" lon="-1.85345">
        <ele>122</ele>
        <time>2022-06-17T17:31:22Z</time>
      </trkpt>
      <trkpt lat="49.64985" lon="-1.85324">
        <ele>122</ele>
        <time>2022-06-17T17:31:53Z</time>
      </trkpt>
      <trkpt lat="49.64993" lon="-1.85304">
        <ele>120</ele>
        <time>2022-06-17T17:32:13Z</time>
      </trkpt>
      <trkpt lat="49.64994" lon="-1.85263">
        <ele>117</ele>
        <time>2022-06-17T17:32:48Z</time>
      </trkpt>
      <trkpt lat="49.64997" lon="-1.85241">
        <ele>114</ele>
        <time>2022-06-17T17:33:08Z</time>
      </trkpt>
      <trkpt lat="49.65005" lon="-1.85228">
        <ele>113</ele>
        <time>2022-06-17T17:33:23Z</time>
      </trkpt>
      <trkpt lat="49.65012" lon="-1.85224">
        <ele>113</ele>
        <time>2022-06-17T17:33:33Z</time>
      </trkpt>
      <trkpt lat="49.6502" lon="-1.85227">
        <ele>114</ele>
        <time>2022-06-17T17:33:44Z</time>
      </trkpt>
      <trkpt lat="49.65023" lon="-1.85231">
        <ele>114</ele>
        <time>2022-06-17T17:33:50Z</time>
      </trkpt>
      <trkpt lat="49.65038" lon="-1.85234">
        <ele>116</ele>
        <time>2022-06-17T17:34:10Z</time>
      </trkpt>
      <trkpt lat="49.65036" lon="-1.85212">
        <ele>113</ele>
        <time>2022-06-17T17:34:29Z</time>
      </trkpt>
      <trkpt lat="49.65026" lon="-1.85176">
        <ele>107</ele>
        <time>2022-06-17T17:35:03Z</time>
      </trkpt>
      <trkpt lat="49.65026" lon="-1.85177">
        <ele>107</ele>
        <time>2022-06-17T17:35:04Z</time>
      </trkpt>
      <trkpt lat="49.64977" lon="-1.85147">
        <ele>97</ele>
        <time>2022-06-17T17:36:14Z</time>
      </trkpt>
      <trkpt lat="49.64961" lon="-1.85141">
        <ele>94</ele>
        <time>2022-06-17T17:36:36Z</time>
      </trkpt>
      <trkpt lat="49.64925" lon="-1.85133">
        <ele>89</ele>
        <time>2022-06-17T17:37:25Z</time>
      </trkpt>
      <trkpt lat="49.64898" lon="-1.85129">
        <ele>84</ele>
        <time>2022-06-17T17:38:01Z</time>
      </trkpt>
      <trkpt lat="49.64817" lon="-1.85134">
        <ele>73</ele>
        <time>2022-06-17T17:39:49Z</time>
      </trkpt>
      <trkpt lat="49.64729" lon="-1.85148">
        <ele>62</ele>
        <time>2022-06-17T17:41:47Z</time>
      </trkpt>
      <trkpt lat="49.64717" lon="-1.85147">
        <ele>61</ele>
        <time>2022-06-17T17:42:03Z</time>
      </trkpt>
      <trkpt lat="49.6471" lon="-1.85144">
        <ele>60</ele>
        <time>2022-06-17T17:42:13Z</time>
      </trkpt>
      <trkpt lat="49.64705" lon="-1.8514">
        <ele>58</ele>
        <time>2022-06-17T17:42:20Z</time>
      </trkpt>
      <trkpt lat="49.6467" lon="-1.85096">
        <ele>46</ele>
        <time>2022-06-17T17:43:20Z</time>
      </trkpt>
      <trkpt lat="49.6465" lon="-1.85086">
        <ele>43</ele>
        <time>2022-06-17T17:43:48Z</time>
      </trkpt>
      <trkpt lat="49.64654" lon="-1.85068">
        <ele>42</ele>
        <time>2022-06-17T17:44:05Z</time>
      </trkpt>
      <trkpt lat="49.64634" lon="-1.85061">
        <ele>40</ele>
        <time>2022-06-17T17:44:32Z</time>
      </trkpt>
      <trkpt lat="49.64641" lon="-1.84987">
        <ele>40</ele>
        <time>2022-06-17T17:45:37Z</time>
      </trkpt>
      <trkpt lat="49.6465" lon="-1.84955">
        <ele>46</ele>
        <time>2022-06-17T17:46:07Z</time>
      </trkpt>
      <trkpt lat="49.64668" lon="-1.84951">
        <ele>48</ele>
        <time>2022-06-17T17:46:31Z</time>
      </trkpt>
      <trkpt lat="49.64639" lon="-1.84918">
        <ele>51</ele>
        <time>2022-06-17T17:47:19Z</time>
      </trkpt>
      <trkpt lat="49.64609" lon="-1.84904">
        <ele>51</ele>
        <time>2022-06-17T17:48:01Z</time>
      </trkpt>
      <trkpt lat="49.6458" lon="-1.84886">
        <ele>53</ele>
        <time>2022-06-17T17:48:43Z</time>
      </trkpt>
      <trkpt lat="49.64533" lon="-1.84888">
        <ele>54</ele>
        <time>2022-06-17T17:49:46Z</time>
      </trkpt>
      <trkpt lat="49.64507" lon="-1.849">
        <ele>53</ele>
        <time>2022-06-17T17:50:22Z</time>
      </trkpt>
      <trkpt lat="49.64444" lon="-1.84894">
        <ele>50</ele>
        <time>2022-06-17T17:51:46Z</time>
      </trkpt>
      <trkpt lat="49.64424" lon="-1.84908">
        <ele>46</ele>
        <time>2022-06-17T17:52:15Z</time>
      </trkpt>
      <trkpt lat="49.64381" lon="-1.84896">
        <ele>46</ele>
        <time>2022-06-17T17:53:14Z</time>
      </trkpt>
      <trkpt lat="49.64373" lon="-1.849">
        <ele>46</ele>
        <time>2022-06-17T17:53:25Z</time>
      </trkpt>
      <trkpt lat="49.64367" lon="-1.84944">
        <ele>40</ele>
        <time>2022-06-17T17:54:04Z</time>
      </trkpt>
      <trkpt lat="49.64369" lon="-1.84945">
        <ele>40</ele>
        <time>2022-06-17T17:54:07Z</time>
      </trkpt>
      <trkpt lat="49.64366" lon="-1.84956">
        <ele>39</ele>
        <time>2022-06-17T17:54:17Z</time>
      </trkpt>
      <trkpt lat="49.64358" lon="-1.84962">
        <ele>38</ele>
        <time>2022-06-17T17:54:29Z</time>
      </trkpt>
      <trkpt lat="49.6434" lon="-1.84965">
        <ele>38</ele>
        <time>2022-06-17T17:54:53Z</time>
      </trkpt>
      <trkpt lat="49.64335" lon="-1.84973">
        <ele>37</ele>
        <time>2022-06-17T17:55:03Z</time>
      </trkpt>
      <trkpt lat="49.64289" lon="-1.8511">
        <ele>23</ele>
        <time>2022-06-17T17:57:16Z</time>
      </trkpt>
      <trkpt lat="49.6427" lon="-1.85092">
        <ele>22</ele>
        <time>2022-06-17T17:57:46Z</time>
      </trkpt>
      <trkpt lat="49.6421" lon="-1.85025">
        <ele>22</ele>
        <time>2022-06-17T17:59:24Z</time>
      </trkpt>
      <trkpt lat="49.64097" lon="-1.8491">
        <ele>23</ele>
        <time>2022-06-17T18:02:25Z</time>
      </trkpt>
      <trkpt lat="49.64025" lon="-1.84831">
        <ele>25</ele>
        <time>2022-06-17T18:04:23Z</time>
      </trkpt>
      <trkpt lat="49.63991" lon="-1.84812">
        <ele>24</ele>
        <time>2022-06-17T18:05:11Z</time>
      </trkpt>
      <trkpt lat="49.63905" lon="-1.84789">
        <ele>24</ele>
        <time>2022-06-17T18:07:08Z</time>
      </trkpt>
      <trkpt lat="49.63886" lon="-1.84787">
        <ele>23</ele>
        <time>2022-06-17T18:07:33Z</time>
      </trkpt>
      <trkpt lat="49.63808" lon="-1.84787">
        <ele>19</ele>
        <time>2022-06-17T18:09:17Z</time>
      </trkpt>
      <trkpt lat="49.6376" lon="-1.84783">
        <ele>17</ele>
        <time>2022-06-17T18:10:21Z</time>
      </trkpt>
      <trkpt lat="49.63752" lon="-1.84781">
        <ele>17</ele>
        <time>2022-06-17T18:10:32Z</time>
      </trkpt>
      <trkpt lat="49.63739" lon="-1.8477">
        <ele>17</ele>
        <time>2022-06-17T18:10:52Z</time>
      </trkpt>
      <trkpt lat="49.63661" lon="-1.84617">
        <ele>18</ele>
        <time>2022-06-17T18:13:40Z</time>
      </trkpt>
      <trkpt lat="49.63679" lon="-1.84572">
        <ele>20</ele>
        <time>2022-06-17T18:14:26Z</time>
      </trkpt>
      <trkpt lat="49.63622" lon="-1.84516">
        <ele>21</ele>
        <time>2022-06-17T18:15:56Z</time>
      </trkpt>
      <trkpt lat="49.63582" lon="-1.84457">
        <ele>24</ele>
        <time>2022-06-17T18:17:10Z</time>
      </trkpt>
      <trkpt lat="49.63677" lon="-1.84544">
        <ele>20</ele>
        <time>2022-06-17T18:19:37Z</time>
      </trkpt>
      <trkpt lat="49.63717" lon="-1.84306">
        <ele>30</ele>
        <time>2022-06-17T18:23:10Z</time>
      </trkpt>
      <trkpt lat="49.63833" lon="-1.83249">
        <ele>45</ele>
        <time>2022-06-17T18:38:36Z</time>
      </trkpt>
      <trkpt lat="49.63647" lon="-1.83028">
        <ele>66</ele>
        <time>2022-06-17T18:43:49Z</time>
      </trkpt>
      <trkpt lat="49.63589" lon="-1.83127">
        <ele>82</ele>
        <time>2022-06-17T18:45:45Z</time>
      </trkpt>
      <trkpt lat="49.63543" lon="-1.83214">
        <ele>97</ele>
        <time>2022-06-17T18:47:22Z</time>
      </trkpt>
      <trkpt lat="49.63429" lon="-1.83127">
        <ele>115</ele>
        <time>2022-06-17T18:50:12Z</time>
      </trkpt>
      <trkpt lat="49.63508" lon="-1.83282">
        <ele>107</ele>
        <time>2022-06-17T18:53:02Z</time>
      </trkpt>
      <trkpt lat="49.63546" lon="-1.83343">
        <ele>104</ele>
        <time>2022-06-17T18:54:15Z</time>
      </trkpt>
      <trkpt lat="49.6357" lon="-1.83506">
        <ele>98</ele>
        <time>2022-06-17T18:56:40Z</time>
      </trkpt>
      <trkpt lat="49.63562" lon="-1.83687">
        <ele>96</ele>
        <time>2022-06-17T18:59:16Z</time>
      </trkpt>
      <trkpt lat="49.63587" lon="-1.83787">
        <ele>93</ele>
        <time>2022-06-17T19:00:49Z</time>
      </trkpt>
      <trkpt lat="49.6362" lon="-1.83998">
        <ele>78</ele>
        <time>2022-06-17T19:03:57Z</time>
      </trkpt>
      <trkpt lat="49.63612" lon="-1.84085">
        <ele>70</ele>
        <time>2022-06-17T19:05:13Z</time>
      </trkpt>
      <trkpt lat="49.63594" lon="-1.84129">
        <ele>66</ele>
        <time>2022-06-17T19:05:58Z</time>
      </trkpt>
      <trkpt lat="49.63513" lon="-1.84091">
        <ele>60</ele>
        <time>2022-06-17T19:07:51Z</time>
      </trkpt>
      <trkpt lat="49.63323" lon="-1.83907">
        <ele>57</ele>
        <time>2022-06-17T19:12:50Z</time>
      </trkpt>
      <trkpt lat="49.63375" lon="-1.84065">
        <ele>50</ele>
        <time>2022-06-17T19:15:23Z</time>
      </trkpt>
      <trkpt lat="49.63372" lon="-1.84075">
        <ele>50</ele>
        <time>2022-06-17T19:15:33Z</time>
      </trkpt>
      <trkpt lat="49.63376" lon="-1.84183">
        <ele>47</ele>
        <time>2022-06-17T19:17:06Z</time>
      </trkpt>
      <trkpt lat="49.63345" lon="-1.84112">
        <ele>54</ele>
        <time>2022-06-17T19:18:20Z</time>
      </trkpt>
      <trkpt lat="49.63264" lon="-1.83964">
        <ele>72</ele>
        <time>2022-06-17T19:21:08Z</time>
      </trkpt>
      <trkpt lat="49.63237" lon="-1.83924">
        <ele>76</ele>
        <time>2022-06-17T19:21:58Z</time>
      </trkpt>
      <trkpt lat="49.63187" lon="-1.83868">
        <ele>86</ele>
        <time>2022-06-17T19:23:20Z</time>
      </trkpt>
      <trkpt lat="49.63171" lon="-1.83829">
        <ele>88</ele>
        <time>2022-06-17T19:24:00Z</time>
      </trkpt>
      <trkpt lat="49.63086" lon="-1.83707">
        <ele>102</ele>
        <time>2022-06-17T19:26:35Z</time>
      </trkpt>
      <trkpt lat="49.63007" lon="-1.83561">
        <ele>111</ele>
        <time>2022-06-17T19:29:19Z</time>
      </trkpt>
      <trkpt lat="49.62974" lon="-1.8352">
        <ele>115</ele>
        <time>2022-06-17T19:30:16Z</time>
      </trkpt>
      <trkpt lat="49.62937" lon="-1.83513">
        <ele>121</ele>
        <time>2022-06-17T19:31:05Z</time>
      </trkpt>
      <trkpt lat="49.62906" lon="-1.8351">
        <ele>126</ele>
        <time>2022-06-17T19:31:47Z</time>
      </trkpt>
      <trkpt lat="49.62805" lon="-1.83522">
        <ele>129</ele>
        <time>2022-06-17T19:34:02Z</time>
      </trkpt>
      <trkpt lat="49.6277" lon="-1.83549">
        <ele>128</ele>
        <time>2022-06-17T19:34:54Z</time>
      </trkpt>
      <trkpt lat="49.6276" lon="-1.83548">
        <ele>128</ele>
        <time>2022-06-17T19:35:08Z</time>
      </trkpt>
      <trkpt lat="49.62726" lon="-1.83507">
        <ele>127</ele>
        <time>2022-06-17T19:36:05Z</time>
      </trkpt>
      <trkpt lat="49.62711" lon="-1.83485">
        <ele>127</ele>
        <time>2022-06-17T19:36:33Z</time>
      </trkpt>
      <trkpt lat="49.62675" lon="-1.83416">
        <ele>127</ele>
        <time>2022-06-17T19:37:49Z</time>
      </trkpt>
      <trkpt lat="49.62651" lon="-1.83388">
        <ele>128</ele>
        <time>2022-06-17T19:38:30Z</time>
      </trkpt>
      <trkpt lat="49.62593" lon="-1.83309">
        <ele>129</ele>
        <time>2022-06-17T19:40:13Z</time>
      </trkpt>
      <trkpt lat="49.62547" lon="-1.83398">
        <ele>123</ele>
        <time>2022-06-17T19:41:51Z</time>
      </trkpt>
      <trkpt lat="49.62522" lon="-1.83423">
        <ele>120</ele>
        <time>2022-06-17T19:42:31Z</time>
      </trkpt>
      <trkpt lat="49.62438" lon="-1.83451">
        <ele>115</ele>
        <time>2022-06-17T19:44:26Z</time>
      </trkpt>
      <trkpt lat="49.62399" lon="-1.83452">
        <ele>114</ele>
        <time>2022-06-17T19:45:18Z</time>
      </trkpt>
      <trkpt lat="49.62349" lon="-1.83367">
        <ele>118</ele>
        <time>2022-06-17T19:46:57Z</time>
      </trkpt>
      <trkpt lat="49.62327" lon="-1.83342">
        <ele>119</ele>
        <time>2022-06-17T19:47:33Z</time>
      </trkpt>
      <trkpt lat="49.62141" lon="-1.83201">
        <ele>123</ele>
        <time>2022-06-17T19:52:10Z</time>
      </trkpt>
      <trkpt lat="49.62198" lon="-1.8307">
        <ele>129</ele>
        <time>2022-06-17T19:54:26Z</time>
      </trkpt>
      <trkpt lat="49.62162" lon="-1.83028">
        <ele>129</ele>
        <time>2022-06-17T19:55:27Z</time>
      </trkpt>
      <trkpt lat="49.62123" lon="-1.82994">
        <ele>129</ele>
        <time>2022-06-17T19:56:26Z</time>
      </trkpt>
      <trkpt lat="49.62097" lon="-1.82959">
        <ele>129</ele>
        <time>2022-06-17T19:57:12Z</time>
      </trkpt>
      <trkpt lat="49.62068" lon="-1.82911">
        <ele>129</ele>
        <time>2022-06-17T19:58:09Z</time>
      </trkpt>
      <trkpt lat="49.62065" lon="-1.829">
        <ele>130</ele>
        <time>2022-06-17T19:58:19Z</time>
      </trkpt>
      <trkpt lat="49.6205" lon="-1.82875">
        <ele>129</ele>
        <time>2022-06-17T19:58:49Z</time>
      </trkpt>
      <trkpt lat="49.61958" lon="-1.82856">
        <ele>125</ele>
        <time>2022-06-17T20:00:53Z</time>
      </trkpt>
      <trkpt lat="49.61912" lon="-1.82845">
        <ele>122</ele>
        <time>2022-06-17T20:01:55Z</time>
      </trkpt>
      <trkpt lat="49.61888" lon="-1.82834">
        <ele>121</ele>
        <time>2022-06-17T20:02:28Z</time>
      </trkpt>
      <trkpt lat="49.61867" lon="-1.82828">
        <ele>121</ele>
        <time>2022-06-17T20:02:57Z</time>
      </trkpt>
      <trkpt lat="49.6185" lon="-1.82881">
        <ele>120</ele>
        <time>2022-06-17T20:03:48Z</time>
      </trkpt>
      <trkpt lat="49.61835" lon="-1.8289">
        <ele>119</ele>
        <time>2022-06-17T20:04:09Z</time>
      </trkpt>
      <trkpt lat="49.61818" lon="-1.82977">
        <ele>117</ele>
        <time>2022-06-17T20:05:28Z</time>
      </trkpt>
      <trkpt lat="49.61817" lon="-1.83012">
        <ele>115</ele>
        <time>2022-06-17T20:05:58Z</time>
      </trkpt>
      <trkpt lat="49.61828" lon="-1.8306">
        <ele>111</ele>
        <time>2022-06-17T20:06:42Z</time>
      </trkpt>
      <trkpt lat="49.61842" lon="-1.83102">
        <ele>108</ele>
        <time>2022-06-17T20:07:23Z</time>
      </trkpt>
      <trkpt lat="49.61867" lon="-1.83151">
        <ele>107</ele>
        <time>2022-06-17T20:08:17Z</time>
      </trkpt>
      <trkpt lat="49.61873" lon="-1.83184">
        <ele>105</ele>
        <time>2022-06-17T20:08:47Z</time>
      </trkpt>
      <trkpt lat="49.61874" lon="-1.83228">
        <ele>104</ele>
        <time>2022-06-17T20:09:25Z</time>
      </trkpt>
      <trkpt lat="49.61867" lon="-1.83327">
        <ele>101</ele>
        <time>2022-06-17T20:10:51Z</time>
      </trkpt>
      <trkpt lat="49.61858" lon="-1.834">
        <ele>96</ele>
        <time>2022-06-17T20:11:55Z</time>
      </trkpt>
      <trkpt lat="49.61857" lon="-1.83429">
        <ele>92</ele>
        <time>2022-06-17T20:12:20Z</time>
      </trkpt>
      <trkpt lat="49.61867" lon="-1.83461">
        <ele>88</ele>
        <time>2022-06-17T20:12:51Z</time>
      </trkpt>
      <trkpt lat="49.61883" lon="-1.83494">
        <ele>84</ele>
        <time>2022-06-17T20:13:27Z</time>
      </trkpt>
      <trkpt lat="49.61901" lon="-1.83514">
        <ele>82</ele>
        <time>2022-06-17T20:13:56Z</time>
      </trkpt>
      <trkpt lat="49.61902" lon="-1.83513">
        <ele>82</ele>
        <time>2022-06-17T20:13:58Z</time>
      </trkpt>
      <trkpt lat="49.61964" lon="-1.83541">
        <ele>80</ele>
        <time>2022-06-17T20:15:24Z</time>
      </trkpt>
      <trkpt lat="49.62014" lon="-1.83576">
        <ele>73</ele>
        <time>2022-06-17T20:16:37Z</time>
      </trkpt>
      <trkpt lat="49.62048" lon="-1.83594">
        <ele>68</ele>
        <time>2022-06-17T20:17:25Z</time>
      </trkpt>
      <trkpt lat="49.62067" lon="-1.83594">
        <ele>68</ele>
        <time>2022-06-17T20:17:51Z</time>
      </trkpt>
      <trkpt lat="49.62088" lon="-1.83584">
        <ele>70</ele>
        <time>2022-06-17T20:18:20Z</time>
      </trkpt>
      <trkpt lat="49.62095" lon="-1.83585">
        <ele>71</ele>
        <time>2022-06-17T20:18:29Z</time>
      </trkpt>
      <trkpt lat="49.62101" lon="-1.83589">
        <ele>70</ele>
        <time>2022-06-17T20:18:38Z</time>
      </trkpt>
      <trkpt lat="49.62117" lon="-1.83622">
        <ele>65</ele>
        <time>2022-06-17T20:19:14Z</time>
      </trkpt>
      <trkpt lat="49.6213" lon="-1.83638">
        <ele>63</ele>
        <time>2022-06-17T20:19:36Z</time>
      </trkpt>
      <trkpt lat="49.62179" lon="-1.83684">
        <ele>56</ele>
        <time>2022-06-17T20:20:52Z</time>
      </trkpt>
      <trkpt lat="49.62193" lon="-1.8369">
        <ele>55</ele>
        <time>2022-06-17T20:21:12Z</time>
      </trkpt>
      <trkpt lat="49.62219" lon="-1.83697">
        <ele>54</ele>
        <time>2022-06-17T20:21:47Z</time>
      </trkpt>
      <trkpt lat="49.62218" lon="-1.83706">
        <ele>52</ele>
        <time>2022-06-17T20:21:55Z</time>
      </trkpt>
      <trkpt lat="49.62211" lon="-1.83707">
        <ele>52</ele>
        <time>2022-06-17T20:22:04Z</time>
      </trkpt>
      <trkpt lat="49.62177" lon="-1.83703">
        <ele>52</ele>
        <time>2022-06-17T20:22:50Z</time>
      </trkpt>
      <trkpt lat="49.6208" lon="-1.83671">
        <ele>54</ele>
        <time>2022-06-17T20:25:02Z</time>
      </trkpt>
      <trkpt lat="49.62039" lon="-1.83677">
        <ele>51</ele>
        <time>2022-06-17T20:25:57Z</time>
      </trkpt>
      <trkpt lat="49.61953" lon="-1.83647">
        <ele>52</ele>
        <time>2022-06-17T20:27:55Z</time>
      </trkpt>
      <trkpt lat="49.61867" lon="-1.83634">
        <ele>46</ele>
        <time>2022-06-17T20:29:50Z</time>
      </trkpt>
      <trkpt lat="49.61811" lon="-1.83616">
        <ele>44</ele>
        <time>2022-06-17T20:31:06Z</time>
      </trkpt>
      <trkpt lat="49.61764" lon="-1.8361">
        <ele>40</ele>
        <time>2022-06-17T20:32:09Z</time>
      </trkpt>
      <trkpt lat="49.61725" lon="-1.83627">
        <ele>34</ele>
        <time>2022-06-17T20:33:03Z</time>
      </trkpt>
      <trkpt lat="49.61721" lon="-1.83686">
        <ele>24</ele>
        <time>2022-06-17T20:33:55Z</time>
      </trkpt>
      <trkpt lat="49.61706" lon="-1.83704">
        <ele>22</ele>
        <time>2022-06-17T20:34:20Z</time>
      </trkpt>
      <trkpt lat="49.61701" lon="-1.83732">
        <ele>19</ele>
        <time>2022-06-17T20:34:45Z</time>
      </trkpt>
      <trkpt lat="49.6169" lon="-1.83751">
        <ele>18</ele>
        <time>2022-06-17T20:35:07Z</time>
      </trkpt>
      <trkpt lat="49.61684" lon="-1.83771">
        <ele>17</ele>
        <time>2022-06-17T20:35:26Z</time>
      </trkpt>
      <trkpt lat="49.61681" lon="-1.83794">
        <ele>16</ele>
        <time>2022-06-17T20:35:46Z</time>
      </trkpt>
      <trkpt lat="49.61661" lon="-1.83833">
        <ele>15</ele>
        <time>2022-06-17T20:36:29Z</time>
      </trkpt>
      <trkpt lat="49.61636" lon="-1.83903">
        <ele>14</ele>
        <time>2022-06-17T20:37:39Z</time>
      </trkpt>
      <trkpt lat="49.6162" lon="-1.83974">
        <ele>11</ele>
        <time>2022-06-17T20:38:44Z</time>
      </trkpt>
      <trkpt lat="49.61591" lon="-1.84066">
        <ele>9</ele>
        <time>2022-06-17T20:40:12Z</time>
      </trkpt>
      <trkpt lat="49.61576" lon="-1.84108">
        <ele>9</ele>
        <time>2022-06-17T20:40:53Z</time>
      </trkpt>
      <trkpt lat="49.61559" lon="-1.8412">
        <ele>9</ele>
        <time>2022-06-17T20:41:18Z</time>
      </trkpt>
      <trkpt lat="49.61548" lon="-1.84143">
        <ele>9</ele>
        <time>2022-06-17T20:41:43Z</time>
      </trkpt>
      <trkpt lat="49.61544" lon="-1.84174">
        <ele>8</ele>
        <time>2022-06-17T20:42:10Z</time>
      </trkpt>
      <trkpt lat="49.61525" lon="-1.84235">
        <ele>6</ele>
        <time>2022-06-17T20:43:09Z</time>
      </trkpt>
      <trkpt lat="49.61502" lon="-1.84259">
        <ele>5</ele>
        <time>2022-06-17T20:43:46Z</time>
      </trkpt>
      <trkpt lat="49.6146" lon="-1.84377">
        <ele>5</ele>
        <time>2022-06-17T20:45:42Z</time>
      </trkpt>
      <trkpt lat="49.61539" lon="-1.84396">
        <ele>8</ele>
        <time>2022-06-17T20:47:29Z</time>
      </trkpt>
      <trkpt lat="49.61553" lon="-1.84405">
        <ele>8</ele>
        <time>2022-06-17T20:47:49Z</time>
      </trkpt>
      <trkpt lat="49.61576" lon="-1.84407">
        <ele>10</ele>
        <time>2022-06-17T20:48:20Z</time>
      </trkpt>
      <trkpt lat="49.61611" lon="-1.84405">
        <ele>10</ele>
        <time>2022-06-17T20:49:07Z</time>
      </trkpt>
      <trkpt lat="49.61619" lon="-1.84405">
        <ele>9</ele>
        <time>2022-06-17T20:49:18Z</time>
      </trkpt>
      <trkpt lat="49.61631" lon="-1.84395">
        <ele>9</ele>
        <time>2022-06-17T20:49:36Z</time>
      </trkpt>
      <trkpt lat="49.61652" lon="-1.84382">
        <ele>9</ele>
        <time>2022-06-17T20:50:06Z</time>
      </trkpt>
      <trkpt lat="49.61657" lon="-1.84376">
        <ele>9</ele>
        <time>2022-06-17T20:50:14Z</time>
      </trkpt>
      <trkpt lat="49.61661" lon="-1.84332">
        <ele>8</ele>
        <time>2022-06-17T20:50:53Z</time>
      </trkpt>
      <trkpt lat="49.61674" lon="-1.84272">
        <ele>6</ele>
        <time>2022-06-17T20:51:47Z</time>
      </trkpt>
      <trkpt lat="49.61676" lon="-1.84251">
        <ele>6</ele>
        <time>2022-06-17T20:52:06Z</time>
      </trkpt>
      <trkpt lat="49.61681" lon="-1.84254">
        <ele>6</ele>
        <time>2022-06-17T20:52:13Z</time>
      </trkpt>
      <trkpt lat="49.61708" lon="-1.84235">
        <ele>5</ele>
        <time>2022-06-17T20:52:53Z</time>
      </trkpt>
      <trkpt lat="49.61751" lon="-1.84223">
        <ele>4</ele>
        <time>2022-06-17T20:53:51Z</time>
      </trkpt>
      <trkpt lat="49.61766" lon="-1.84213">
        <ele>4</ele>
        <time>2022-06-17T20:54:13Z</time>
      </trkpt>
      <trkpt lat="49.61807" lon="-1.84235">
        <ele>4</ele>
        <time>2022-06-17T20:55:11Z</time>
      </trkpt>
      <trkpt lat="49.61845" lon="-1.84263">
        <ele>4</ele>
        <time>2022-06-17T20:56:07Z</time>
      </trkpt>
      <trkpt lat="49.61912" lon="-1.84319">
        <ele>4</ele>
        <time>2022-06-17T20:57:49Z</time>
      </trkpt>
      <trkpt lat="49.6192" lon="-1.84341">
        <ele>4</ele>
        <time>2022-06-17T20:58:10Z</time>
      </trkpt>
      <trkpt lat="49.61949" lon="-1.84354">
        <ele>5</ele>
        <time>2022-06-17T20:58:51Z</time>
      </trkpt>
      <trkpt lat="49.62005" lon="-1.84359">
        <ele>4</ele>
        <time>2022-06-17T21:00:05Z</time>
      </trkpt>
      <trkpt lat="49.62043" lon="-1.84359">
        <ele>4</ele>
        <time>2022-06-17T21:00:56Z</time>
      </trkpt>
      <trkpt lat="49.62082" lon="-1.84378">
        <ele>4</ele>
        <time>2022-06-17T21:01:51Z</time>
      </trkpt>
      <trkpt lat="49.62101" lon="-1.84403">
        <ele>4</ele>
        <time>2022-06-17T21:02:24Z</time>
      </trkpt>
      <trkpt lat="49.62131" lon="-1.84414">
        <ele>4</ele>
        <time>2022-06-17T21:03:05Z</time>
      </trkpt>
      <trkpt lat="49.622" lon="-1.8442">
        <ele>4</ele>
        <time>2022-06-17T21:04:37Z</time>
      </trkpt>
      <trkpt lat="49.6222" lon="-1.84415">
        <ele>4</ele>
        <time>2022-06-17T21:05:04Z</time>
      </trkpt>
      <trkpt lat="49.62236" lon="-1.84408">
        <ele>4</ele>
        <time>2022-06-17T21:05:27Z</time>
      </trkpt>
      <trkpt lat="49.62272" lon="-1.84427">
        <ele>4</ele>
        <time>2022-06-17T21:06:17Z</time>
      </trkpt>
      <trkpt lat="49.62285" lon="-1.84444">
        <ele>4</ele>
        <time>2022-06-17T21:06:40Z</time>
      </trkpt>
      <trkpt lat="49.62306" lon="-1.84457">
        <ele>4</ele>
        <time>2022-06-17T21:07:10Z</time>
      </trkpt>
      <trkpt lat="49.6233" lon="-1.84487">
        <ele>5</ele>
        <time>2022-06-17T21:07:52Z</time>
      </trkpt>
      <trkpt lat="49.62342" lon="-1.84516">
        <ele>5</ele>
        <time>2022-06-17T21:08:21Z</time>
      </trkpt>
      <trkpt lat="49.62391" lon="-1.84533">
        <ele>5</ele>
        <time>2022-06-17T21:09:28Z</time>
      </trkpt>
      <trkpt lat="49.62427" lon="-1.84543">
        <ele>5</ele>
        <time>2022-06-17T21:10:17Z</time>
      </trkpt>
      <trkpt lat="49.62442" lon="-1.84543">
        <ele>5</ele>
        <time>2022-06-17T21:10:37Z</time>
      </trkpt>
      <trkpt lat="49.62465" lon="-1.84555">
        <ele>6</ele>
        <time>2022-06-17T21:11:10Z</time>
      </trkpt>
      <trkpt lat="49.62487" lon="-1.8456">
        <ele>6</ele>
        <time>2022-06-17T21:11:39Z</time>
      </trkpt>
      <trkpt lat="49.62501" lon="-1.84571">
        <ele>6</ele>
        <time>2022-06-17T21:12:00Z</time>
      </trkpt>
      <trkpt lat="49.62518" lon="-1.84577">
        <ele>6</ele>
        <time>2022-06-17T21:12:23Z</time>
      </trkpt>
      <trkpt lat="49.6254" lon="-1.846">
        <ele>6</ele>
        <time>2022-06-17T21:12:59Z</time>
      </trkpt>
      <trkpt lat="49.62583" lon="-1.84605">
        <ele>6</ele>
        <time>2022-06-17T21:13:56Z</time>
      </trkpt>
      <trkpt lat="49.62594" lon="-1.8461">
        <ele>6</ele>
        <time>2022-06-17T21:14:12Z</time>
      </trkpt>
      <trkpt lat="49.62629" lon="-1.84631">
        <ele>5</ele>
        <time>2022-06-17T21:15:02Z</time>
      </trkpt>
      <trkpt lat="49.62661" lon="-1.84662">
        <ele>5</ele>
        <time>2022-06-17T21:15:52Z</time>
      </trkpt>
      <trkpt lat="49.62671" lon="-1.84677">
        <ele>5</ele>
        <time>2022-06-17T21:16:11Z</time>
      </trkpt>
      <trkpt lat="49.62691" lon="-1.84688">
        <ele>5</ele>
        <time>2022-06-17T21:16:39Z</time>
      </trkpt>
      <trkpt lat="49.62739" lon="-1.84704">
        <ele>5</ele>
        <time>2022-06-17T21:17:45Z</time>
      </trkpt>
      <trkpt lat="49.62773" lon="-1.84713">
        <ele>5</ele>
        <time>2022-06-17T21:18:31Z</time>
      </trkpt>
      <trkpt lat="49.62789" lon="-1.8472">
        <ele>5</ele>
        <time>2022-06-17T21:18:53Z</time>
      </trkpt>
      <trkpt lat="49.62816" lon="-1.84718">
        <ele>5</ele>
        <time>2022-06-17T21:19:29Z</time>
      </trkpt>
      <trkpt lat="49.62853" lon="-1.84707">
        <ele>4</ele>
        <time>2022-06-17T21:20:19Z</time>
      </trkpt>
      <trkpt lat="49.62875" lon="-1.84715">
        <ele>5</ele>
        <time>2022-06-17T21:20:50Z</time>
      </trkpt>
      <trkpt lat="49.62899" lon="-1.84734">
        <ele>5</ele>
        <time>2022-06-17T21:21:26Z</time>
      </trkpt>
      <trkpt lat="49.62924" lon="-1.84758">
        <ele>5</ele>
        <time>2022-06-17T21:22:05Z</time>
      </trkpt>
      <trkpt lat="49.6294" lon="-1.84789">
        <ele>5</ele>
        <time>2022-06-17T21:22:39Z</time>
      </trkpt>
      <trkpt lat="49.62952" lon="-1.84796">
        <ele>5</ele>
        <time>2022-06-17T21:22:56Z</time>
      </trkpt>
      <trkpt lat="49.62973" lon="-1.84804">
        <ele>5</ele>
        <time>2022-06-17T21:23:25Z</time>
      </trkpt>
      <trkpt lat="49.63013" lon="-1.84811">
        <ele>5</ele>
        <time>2022-06-17T21:24:19Z</time>
      </trkpt>
      <trkpt lat="49.63046" lon="-1.84823">
        <ele>4</ele>
        <time>2022-06-17T21:25:04Z</time>
      </trkpt>
      <trkpt lat="49.63062" lon="-1.84831">
        <ele>4</ele>
        <time>2022-06-17T21:25:26Z</time>
      </trkpt>
      <trkpt lat="49.63088" lon="-1.84853">
        <ele>4</ele>
        <time>2022-06-17T21:26:06Z</time>
      </trkpt>
      <trkpt lat="49.63108" lon="-1.8486">
        <ele>4</ele>
        <time>2022-06-17T21:26:33Z</time>
      </trkpt>
      <trkpt lat="49.63147" lon="-1.84862">
        <ele>5</ele>
        <time>2022-06-17T21:27:25Z</time>
      </trkpt>
      <trkpt lat="49.63182" lon="-1.84874">
        <ele>5</ele>
        <time>2022-06-17T21:28:13Z</time>
      </trkpt>
      <trkpt lat="49.63233" lon="-1.84909">
        <ele>6</ele>
        <time>2022-06-17T21:29:28Z</time>
      </trkpt>
      <trkpt lat="49.63278" lon="-1.84928">
        <ele>6</ele>
        <time>2022-06-17T21:30:30Z</time>
      </trkpt>
      <trkpt lat="49.63343" lon="-1.84938">
        <ele>7</ele>
        <time>2022-06-17T21:31:57Z</time>
      </trkpt>
      <trkpt lat="49.63485" lon="-1.85013">
        <ele>7</ele>
        <time>2022-06-17T21:35:17Z</time>
      </trkpt>
      <trkpt lat="49.6349" lon="-1.84987">
        <ele>7</ele>
        <time>2022-06-17T21:35:41Z</time>
      </trkpt>
    </trkseg>
  </trk>
</gpx>